sensor_id;sensor_type;location;lat;lon;timestamp;temperature;humidity
16966;DHT22;8599;47.852;12.070;2023-03-02T00:00:31;2.00;99.90
16966;DHT22;8599;47.852;12.070;2023-03-02T00:02:59;2.00;99.90
16966;DHT22;8599;47.852;12.070;2023-03-02T00:05:27;1.90;99.90
16966;DHT22;8599;47.852;12.070;2023-03-02T00:07:56;1.90;99.90
16966;DHT22;8599;47.852;12.070;2023-03-02T00:10:23;1.80;99.90
16966;DHT22;8599;47.852;12.070;2023-03-02T00:12:50;1.80;99.90
16966;DHT22;8599;47.852;12.070;2023-03-02T00:15:17;1.80;99.90
16966;DHT22;8599;47.852;12.070;2023-03-02T00:17:44;1.70;99.90
16966;DHT22;8599;47.852;12.070;2023-03-02T00:20:11;1.70;99.90
16966;DHT22;8599;47.852;12.070;2023-03-02T00:22:40;1.70;99.90
16966;DHT22;8599;47.852;12.070;2023-03-02T00:25:09;1.70;99.90
16966;DHT22;8599;47.852;12.070;2023-03-02T00:27:36;1.70;99.90
16966;DHT22;8599;47.852;12.070;2023-03-02T00:30:04;1.70;99.90
16966;DHT22;8599;47.852;12.070;2023-03-02T00:32:31;1.60;99.90
16966;DHT22;8599;47.852;12.070;2023-03-02T00:34:58;1.60;99.90
16966;DHT22;8599;47.852;12.070;2023-03-02T00:37:25;1.60;99.90
16966;DHT22;8599;47.852;12.070;2023-03-02T00:39:52;1.60;99.90
16966;DHT22;8599;47.852;12.070;2023-03-02T00:42:21;1.50;99.90
16966;DHT22;8599;47.852;12.070;2023-03-02T00:44:48;1.50;99.90
16966;DHT22;8599;47.852;12.070;2023-03-02T00:47:14;1.50;99.90
16966;DHT22;8599;47.852;12.070;2023-03-02T00:49:41;1.50;99.90
16966;DHT22;8599;47.852;12.070;2023-03-02T00:52:13;1.50;99.90
16966;DHT22;8599;47.852;12.070;2023-03-02T00:54:40;1.50;99.90
16966;DHT22;8599;47.852;12.070;2023-03-02T00:57:07;1.50;99.90
16966;DHT22;8599;47.852;12.070;2023-03-02T00:59:37;1.50;99.90
16966;DHT22;8599;47.852;12.070;2023-03-02T01:02:05;1.50;99.90
16966;DHT22;8599;47.852;12.070;2023-03-02T01:04:34;1.30;99.90
16966;DHT22;8599;47.852;12.070;2023-03-02T01:07:04;1.30;99.90
16966;DHT22;8599;47.852;12.070;2023-03-02T01:09:31;1.20;99.90
16966;DHT22;8599;47.852;12.070;2023-03-02T01:11:58;1.20;99.90
16966;DHT22;8599;47.852;12.070;2023-03-02T01:14:25;1.30;99.90
16966;DHT22;8599;47.852;12.070;2023-03-02T01:16:54;1.20;99.90
16966;DHT22;8599;47.852;12.070;2023-03-02T01:19:21;1.20;99.90
16966;DHT22;8599;47.852;12.070;2023-03-02T01:21:47;1.20;99.90
16966;DHT22;8599;47.852;12.070;2023-03-02T01:24:14;1.20;99.90
16966;DHT22;8599;47.852;12.070;2023-03-02T01:26:41;1.10;99.90
16966;DHT22;8599;47.852;12.070;2023-03-02T01:29:08;1.20;99.90
16966;DHT22;8599;47.852;12.070;2023-03-02T01:31:36;1.10;99.90
16966;DHT22;8599;47.852;12.070;2023-03-02T01:34:04;1.10;99.90
16966;DHT22;8599;47.852;12.070;2023-03-02T01:36:31;1.10;99.90
16966;DHT22;8599;47.852;12.070;2023-03-02T01:38:58;1.10;99.90
16966;DHT22;8599;47.852;12.070;2023-03-02T01:44:48;0.90;99.90
16966;DHT22;8599;47.852;12.070;2023-03-02T01:47:19;1.10;99.90
16966;DHT22;8599;47.852;12.070;2023-03-02T01:49:51;1.20;99.90
16966;DHT22;8599;47.852;12.070;2023-03-02T01:52:19;1.10;99.90
16966;DHT22;8599;47.852;12.070;2023-03-02T01:54:49;1.00;99.90
16966;DHT22;8599;47.852;12.070;2023-03-02T01:57:22;1.10;99.90
16966;DHT22;8599;47.852;12.070;2023-03-02T01:59:53;1.10;99.90
16966;DHT22;8599;47.852;12.070;2023-03-02T02:02:21;1.10;99.90
16966;DHT22;8599;47.852;12.070;2023-03-02T02:04:51;1.00;99.90
16966;DHT22;8599;47.852;12.070;2023-03-02T02:07:18;1.00;99.90
16966;DHT22;8599;47.852;12.070;2023-03-02T02:09:48;1.20;99.90
16966;DHT22;8599;47.852;12.070;2023-03-02T02:12:18;1.20;99.90
16966;DHT22;8599;47.852;12.070;2023-03-02T02:14:46;1.00;99.90
16966;DHT22;8599;47.852;12.070;2023-03-02T02:17:13;1.00;99.90
16966;DHT22;8599;47.852;12.070;2023-03-02T02:19:48;1.00;99.90
16966;DHT22;8599;47.852;12.070;2023-03-02T02:22:30;1.00;99.90
16966;DHT22;8599;47.852;12.070;2023-03-02T02:25:02;1.00;99.90
16966;DHT22;8599;47.852;12.070;2023-03-02T02:27:33;1.10;99.90
16966;DHT22;8599;47.852;12.070;2023-03-02T02:30:02;1.10;99.90
16966;DHT22;8599;47.852;12.070;2023-03-02T02:32:32;1.10;99.90
16966;DHT22;8599;47.852;12.070;2023-03-02T02:35:03;1.20;99.90
16966;DHT22;8599;47.852;12.070;2023-03-02T02:37:32;1.20;99.90
16966;DHT22;8599;47.852;12.070;2023-03-02T02:40:02;1.20;99.90
16966;DHT22;8599;47.852;12.070;2023-03-02T02:42:35;1.20;99.90
16966;DHT22;8599;47.852;12.070;2023-03-02T02:45:05;1.20;99.90
16966;DHT22;8599;47.852;12.070;2023-03-02T02:47:33;1.20;99.90
16966;DHT22;8599;47.852;12.070;2023-03-02T02:49:59;1.20;99.90
16966;DHT22;8599;47.852;12.070;2023-03-02T02:52:28;1.30;99.90
16966;DHT22;8599;47.852;12.070;2023-03-02T02:54:56;1.30;99.90
16966;DHT22;8599;47.852;12.070;2023-03-02T02:57:26;1.20;99.90
16966;DHT22;8599;47.852;12.070;2023-03-02T02:59:58;1.20;99.90
16966;DHT22;8599;47.852;12.070;2023-03-02T03:02:27;1.20;99.90
16966;DHT22;8599;47.852;12.070;2023-03-02T03:04:55;1.20;99.90
16966;DHT22;8599;47.852;12.070;2023-03-02T03:07:28;1.20;99.90
16966;DHT22;8599;47.852;12.070;2023-03-02T03:09:58;1.10;99.90
16966;DHT22;8599;47.852;12.070;2023-03-02T03:12:28;1.10;99.90
16966;DHT22;8599;47.852;12.070;2023-03-02T03:14:59;1.00;99.90
16966;DHT22;8599;47.852;12.070;2023-03-02T03:17:27;1.00;99.90
16966;DHT22;8599;47.852;12.070;2023-03-02T03:19:54;0.90;99.90
16966;DHT22;8599;47.852;12.070;2023-03-02T03:22:31;0.90;99.90
16966;DHT22;8599;47.852;12.070;2023-03-02T03:24:58;0.90;99.90
16966;DHT22;8599;47.852;12.070;2023-03-02T03:27:25;0.90;99.90
16966;DHT22;8599;47.852;12.070;2023-03-02T03:29:52;0.90;99.90
16966;DHT22;8599;47.852;12.070;2023-03-02T03:32:20;0.90;99.90
16966;DHT22;8599;47.852;12.070;2023-03-02T03:34:47;0.90;99.90
16966;DHT22;8599;47.852;12.070;2023-03-02T03:37:17;0.90;99.90
16966;DHT22;8599;47.852;12.070;2023-03-02T03:39:45;0.90;99.90
16966;DHT22;8599;47.852;12.070;2023-03-02T03:42:12;0.80;99.90
16966;DHT22;8599;47.852;12.070;2023-03-02T03:44:38;0.80;99.90
16966;DHT22;8599;47.852;12.070;2023-03-02T03:47:05;0.80;99.90
16966;DHT22;8599;47.852;12.070;2023-03-02T03:49:33;0.70;99.90
16966;DHT22;8599;47.852;12.070;2023-03-02T03:52:00;0.70;99.90
16966;DHT22;8599;47.852;12.070;2023-03-02T03:54:28;0.70;99.90
16966;DHT22;8599;47.852;12.070;2023-03-02T03:56:55;0.60;99.90
16966;DHT22;8599;47.852;12.070;2023-03-02T03:59:23;0.60;99.90
16966;DHT22;8599;47.852;12.070;2023-03-02T04:01:53;0.60;99.90
16966;DHT22;8599;47.852;12.070;2023-03-02T04:04:22;0.60;99.90
16966;DHT22;8599;47.852;12.070;2023-03-02T04:06:52;0.60;99.90
16966;DHT22;8599;47.852;12.070;2023-03-02T04:09:20;0.50;99.90
16966;DHT22;8599;47.852;12.070;2023-03-02T04:11:50;0.60;99.90
16966;DHT22;8599;47.852;12.070;2023-03-02T04:14:17;0.60;99.90
16966;DHT22;8599;47.852;12.070;2023-03-02T04:16:45;0.70;99.90
16966;DHT22;8599;47.852;12.070;2023-03-02T04:19:13;0.70;99.90
16966;DHT22;8599;47.852;12.070;2023-03-02T04:21:44;0.60;99.90
16966;DHT22;8599;47.852;12.070;2023-03-02T04:24:14;0.70;99.90
16966;DHT22;8599;47.852;12.070;2023-03-02T04:26:42;0.60;99.90
16966;DHT22;8599;47.852;12.070;2023-03-02T04:29:11;0.60;99.90
16966;DHT22;8599;47.852;12.070;2023-03-02T04:31:38;0.50;99.90
16966;DHT22;8599;47.852;12.070;2023-03-02T04:34:06;0.40;99.90
16966;DHT22;8599;47.852;12.070;2023-03-02T04:36:34;0.40;99.90
16966;DHT22;8599;47.852;12.070;2023-03-02T04:39:03;0.30;99.90
16966;DHT22;8599;47.852;12.070;2023-03-02T04:41:31;0.30;99.90
16966;DHT22;8599;47.852;12.070;2023-03-02T04:43:58;0.20;99.90
16966;DHT22;8599;47.852;12.070;2023-03-02T04:46:26;0.30;99.90
16966;DHT22;8599;47.852;12.070;2023-03-02T04:48:54;0.40;99.90
16966;DHT22;8599;47.852;12.070;2023-03-02T04:51:23;0.40;99.90
16966;DHT22;8599;47.852;12.070;2023-03-02T04:53:50;0.30;99.90
16966;DHT22;8599;47.852;12.070;2023-03-02T04:56:18;0.20;99.90
16966;DHT22;8599;47.852;12.070;2023-03-02T04:58:46;0.20;99.90
16966;DHT22;8599;47.852;12.070;2023-03-02T05:01:14;0.20;99.90
16966;DHT22;8599;47.852;12.070;2023-03-02T05:03:42;0.20;99.90
16966;DHT22;8599;47.852;12.070;2023-03-02T05:06:09;0.20;99.90
16966;DHT22;8599;47.852;12.070;2023-03-02T05:08:37;0.10;99.90
16966;DHT22;8599;47.852;12.070;2023-03-02T05:11:05;0.10;99.90
16966;DHT22;8599;47.852;12.070;2023-03-02T05:13:35;0.10;99.90
16966;DHT22;8599;47.852;12.070;2023-03-02T05:16:03;0.10;99.90
16966;DHT22;8599;47.852;12.070;2023-03-02T05:18:30;0.10;99.90
16966;DHT22;8599;47.852;12.070;2023-03-02T05:20:57;-0.10;99.90
16966;DHT22;8599;47.852;12.070;2023-03-02T05:23:24;0.00;99.90
16966;DHT22;8599;47.852;12.070;2023-03-02T05:25:54;0.00;99.90
16966;DHT22;8599;47.852;12.070;2023-03-02T05:28:22;0.00;99.90
16966;DHT22;8599;47.852;12.070;2023-03-02T05:30:50;0.00;99.90
16966;DHT22;8599;47.852;12.070;2023-03-02T05:33:19;0.10;99.90
16966;DHT22;8599;47.852;12.070;2023-03-02T05:35:46;0.10;99.90
16966;DHT22;8599;47.852;12.070;2023-03-02T05:38:13;0.20;99.90
16966;DHT22;8599;47.852;12.070;2023-03-02T05:40:40;0.10;99.90
16966;DHT22;8599;47.852;12.070;2023-03-02T05:43:08;0.00;99.90
16966;DHT22;8599;47.852;12.070;2023-03-02T05:45:37;-0.10;99.90
16966;DHT22;8599;47.852;12.070;2023-03-02T05:48:05;0.00;99.90
16966;DHT22;8599;47.852;12.070;2023-03-02T05:50:33;0.00;99.90
16966;DHT22;8599;47.852;12.070;2023-03-02T05:53:00;0.00;99.90
16966;DHT22;8599;47.852;12.070;2023-03-02T05:55:28;-0.20;99.90
16966;DHT22;8599;47.852;12.070;2023-03-02T05:57:54;-0.10;99.90
16966;DHT22;8599;47.852;12.070;2023-03-02T06:00:22;-0.10;99.90
16966;DHT22;8599;47.852;12.070;2023-03-02T06:02:49;-0.10;99.90
16966;DHT22;8599;47.852;12.070;2023-03-02T06:05:18;-0.10;99.90
16966;DHT22;8599;47.852;12.070;2023-03-02T06:07:48;-0.10;99.90
16966;DHT22;8599;47.852;12.070;2023-03-02T06:10:15;-0.10;99.90
16966;DHT22;8599;47.852;12.070;2023-03-02T06:12:42;0.00;99.90
16966;DHT22;8599;47.852;12.070;2023-03-02T06:15:10;0.10;99.90
16966;DHT22;8599;47.852;12.070;2023-03-02T06:17:37;0.10;99.90
16966;DHT22;8599;47.852;12.070;2023-03-02T06:20:05;0.20;99.90
16966;DHT22;8599;47.852;12.070;2023-03-02T06:22:35;0.10;99.90
16966;DHT22;8599;47.852;12.070;2023-03-02T06:25:07;0.10;99.90
16966;DHT22;8599;47.852;12.070;2023-03-02T06:27:36;0.10;99.90
16966;DHT22;8599;47.852;12.070;2023-03-02T06:30:03;0.10;99.90
16966;DHT22;8599;47.852;12.070;2023-03-02T06:32:31;0.20;99.90
16966;DHT22;8599;47.852;12.070;2023-03-02T06:34:58;0.20;99.90
16966;DHT22;8599;47.852;12.070;2023-03-02T06:37:26;0.20;99.90
16966;DHT22;8599;47.852;12.070;2023-03-02T06:39:53;0.20;99.90
16966;DHT22;8599;47.852;12.070;2023-03-02T06:42:22;0.20;99.90
16966;DHT22;8599;47.852;12.070;2023-03-02T06:44:49;0.30;99.90
16966;DHT22;8599;47.852;12.070;2023-03-02T06:47:16;0.30;99.90
16966;DHT22;8599;47.852;12.070;2023-03-02T06:49:43;0.40;99.90
16966;DHT22;8599;47.852;12.070;2023-03-02T06:52:10;0.40;99.90
16966;DHT22;8599;47.852;12.070;2023-03-02T06:54:38;0.40;99.90
16966;DHT22;8599;47.852;12.070;2023-03-02T06:57:05;0.40;99.90
16966;DHT22;8599;47.852;12.070;2023-03-02T06:59:34;0.50;99.90
16966;DHT22;8599;47.852;12.070;2023-03-02T07:02:01;0.60;99.90
16966;DHT22;8599;47.852;12.070;2023-03-02T07:04:28;0.60;99.90
16966;DHT22;8599;47.852;12.070;2023-03-02T07:06:55;0.60;99.90
16966;DHT22;8599;47.852;12.070;2023-03-02T07:09:22;0.70;99.90
16966;DHT22;8599;47.852;12.070;2023-03-02T07:11:49;0.70;99.90
16966;DHT22;8599;47.852;12.070;2023-03-02T07:14:16;0.60;99.90
16966;DHT22;8599;47.852;12.070;2023-03-02T07:16:44;0.70;99.90
16966;DHT22;8599;47.852;12.070;2023-03-02T07:19:11;0.70;99.90
16966;DHT22;8599;47.852;12.070;2023-03-02T07:21:38;0.70;99.90
16966;DHT22;8599;47.852;12.070;2023-03-02T07:24:06;0.80;99.90
16966;DHT22;8599;47.852;12.070;2023-03-02T07:26:33;0.80;99.90
16966;DHT22;8599;47.852;12.070;2023-03-02T07:29:00;0.90;99.90
16966;DHT22;8599;47.852;12.070;2023-03-02T07:31:27;1.00;99.90
16966;DHT22;8599;47.852;12.070;2023-03-02T07:33:55;1.00;99.90
16966;DHT22;8599;47.852;12.070;2023-03-02T07:36:22;1.00;99.90
16966;DHT22;8599;47.852;12.070;2023-03-02T07:38:49;1.10;99.90
16966;DHT22;8599;47.852;12.070;2023-03-02T07:41:15;1.10;99.90
16966;DHT22;8599;47.852;12.070;2023-03-02T07:43:42;1.00;99.90
16966;DHT22;8599;47.852;12.070;2023-03-02T07:46:09;1.00;99.90
16966;DHT22;8599;47.852;12.070;2023-03-02T07:48:36;1.00;99.90
16966;DHT22;8599;47.852;12.070;2023-03-02T07:51:05;0.90;99.90
16966;DHT22;8599;47.852;12.070;2023-03-02T07:53:32;0.80;99.90
16966;DHT22;8599;47.852;12.070;2023-03-02T07:55:59;1.00;99.90
16966;DHT22;8599;47.852;12.070;2023-03-02T07:58:30;1.10;99.90
16966;DHT22;8599;47.852;12.070;2023-03-02T08:00:57;1.20;99.90
16966;DHT22;8599;47.852;12.070;2023-03-02T08:03:24;1.20;99.90
16966;DHT22;8599;47.852;12.070;2023-03-02T08:05:51;1.30;99.90
16966;DHT22;8599;47.852;12.070;2023-03-02T08:08:19;1.40;99.90
16966;DHT22;8599;47.852;12.070;2023-03-02T08:10:46;1.40;99.90
16966;DHT22;8599;47.852;12.070;2023-03-02T08:13:13;1.50;99.90
16966;DHT22;8599;47.852;12.070;2023-03-02T08:15:39;1.50;99.90
16966;DHT22;8599;47.852;12.070;2023-03-02T08:18:06;1.60;99.90
16966;DHT22;8599;47.852;12.070;2023-03-02T08:20:34;1.70;99.90
16966;DHT22;8599;47.852;12.070;2023-03-02T08:23:01;1.70;99.90
16966;DHT22;8599;47.852;12.070;2023-03-02T08:25:30;1.70;99.90
16966;DHT22;8599;47.852;12.070;2023-03-02T08:27:57;1.70;99.90
16966;DHT22;8599;47.852;12.070;2023-03-02T08:30:23;1.80;99.90
16966;DHT22;8599;47.852;12.070;2023-03-02T08:32:50;1.90;99.90
16966;DHT22;8599;47.852;12.070;2023-03-02T08:35:17;1.90;99.90
16966;DHT22;8599;47.852;12.070;2023-03-02T08:37:46;2.10;99.90
16966;DHT22;8599;47.852;12.070;2023-03-02T08:40:13;2.10;99.90
16966;DHT22;8599;47.852;12.070;2023-03-02T08:42:41;2.20;99.90
16966;DHT22;8599;47.852;12.070;2023-03-02T08:45:09;2.40;99.90
16966;DHT22;8599;47.852;12.070;2023-03-02T08:47:36;2.60;99.90
16966;DHT22;8599;47.852;12.070;2023-03-02T08:50:03;2.60;99.90
16966;DHT22;8599;47.852;12.070;2023-03-02T08:52:31;2.60;99.90
16966;DHT22;8599;47.852;12.070;2023-03-02T08:54:58;2.70;99.90
16966;DHT22;8599;47.852;12.070;2023-03-02T08:57:25;2.70;99.90
16966;DHT22;8599;47.852;12.070;2023-03-02T08:59:53;2.80;99.90
16966;DHT22;8599;47.852;12.070;2023-03-02T09:02:20;2.80;99.90
16966;DHT22;8599;47.852;12.070;2023-03-02T09:04:47;2.80;99.90
16966;DHT22;8599;47.852;12.070;2023-03-02T09:07:14;2.80;99.90
16966;DHT22;8599;47.852;12.070;2023-03-02T09:09:41;2.80;99.90
16966;DHT22;8599;47.852;12.070;2023-03-02T09:12:08;2.80;99.90
16966;DHT22;8599;47.852;12.070;2023-03-02T09:14:35;2.80;99.90
16966;DHT22;8599;47.852;12.070;2023-03-02T09:17:03;3.00;99.90
16966;DHT22;8599;47.852;12.070;2023-03-02T09:19:31;3.00;99.90
16966;DHT22;8599;47.852;12.070;2023-03-02T09:22:05;3.00;99.90
16966;DHT22;8599;47.852;12.070;2023-03-02T09:24:32;3.00;99.90
16966;DHT22;8599;47.852;12.070;2023-03-02T09:26:59;3.00;99.90
16966;DHT22;8599;47.852;12.070;2023-03-02T09:29:26;2.90;99.90
16966;DHT22;8599;47.852;12.070;2023-03-02T09:31:53;2.90;99.90
16966;DHT22;8599;47.852;12.070;2023-03-02T09:34:22;3.00;99.90
16966;DHT22;8599;47.852;12.070;2023-03-02T09:36:48;3.20;99.90
16966;DHT22;8599;47.852;12.070;2023-03-02T09:39:15;3.30;99.90
16966;DHT22;8599;47.852;12.070;2023-03-02T09:42:13;3.40;99.90
16966;DHT22;8599;47.852;12.070;2023-03-02T09:45:04;3.60;99.90
16966;DHT22;8599;47.852;12.070;2023-03-02T09:47:37;3.60;99.90
16966;DHT22;8599;47.852;12.070;2023-03-02T09:50:22;3.60;99.90
16966;DHT22;8599;47.852;12.070;2023-03-02T09:53:02;3.60;99.90
16966;DHT22;8599;47.852;12.070;2023-03-02T09:55:33;3.60;99.90
16966;DHT22;8599;47.852;12.070;2023-03-02T09:58:02;3.60;99.90
16966;DHT22;8599;47.852;12.070;2023-03-02T10:00:33;3.70;99.90
16966;DHT22;8599;47.852;12.070;2023-03-02T10:03:03;3.80;99.90
16966;DHT22;8599;47.852;12.070;2023-03-02T10:05:37;3.80;99.90
16966;DHT22;8599;47.852;12.070;2023-03-02T10:08:04;3.80;99.90
16966;DHT22;8599;47.852;12.070;2023-03-02T10:10:38;3.90;99.90
16966;DHT22;8599;47.852;12.070;2023-03-02T10:13:17;4.10;99.90
16966;DHT22;8599;47.852;12.070;2023-03-02T10:15:54;4.20;99.90
16966;DHT22;8599;47.852;12.070;2023-03-02T10:18:30;4.30;99.90
16966;DHT22;8599;47.852;12.070;2023-03-02T10:21:03;4.50;99.90
16966;DHT22;8599;47.852;12.070;2023-03-02T10:23:38;4.60;99.90
16966;DHT22;8599;47.852;12.070;2023-03-02T10:26:14;4.70;99.90
16966;DHT22;8599;47.852;12.070;2023-03-02T10:28:47;4.70;99.90
16966;DHT22;8599;47.852;12.070;2023-03-02T10:31:22;4.70;99.90
16966;DHT22;8599;47.852;12.070;2023-03-02T10:33:50;4.70;99.90
16966;DHT22;8599;47.852;12.070;2023-03-02T10:36:21;4.70;99.90
16966;DHT22;8599;47.852;12.070;2023-03-02T10:38:49;4.60;99.90
16966;DHT22;8599;47.852;12.070;2023-03-02T10:41:20;4.50;99.90
16966;DHT22;8599;47.852;12.070;2023-03-02T10:43:50;4.70;99.90
16966;DHT22;8599;47.852;12.070;2023-03-02T10:46:18;4.80;99.90
16966;DHT22;8599;47.852;12.070;2023-03-02T10:48:46;4.80;99.90
16966;DHT22;8599;47.852;12.070;2023-03-02T10:51:22;4.90;99.90
16966;DHT22;8599;47.852;12.070;2023-03-02T10:53:49;4.90;99.90
16966;DHT22;8599;47.852;12.070;2023-03-02T10:56:19;4.90;99.90
16966;DHT22;8599;47.852;12.070;2023-03-02T10:58:46;5.00;99.90
16966;DHT22;8599;47.852;12.070;2023-03-02T11:01:16;5.10;99.90
16966;DHT22;8599;47.852;12.070;2023-03-02T11:03:53;5.10;99.90
16966;DHT22;8599;47.852;12.070;2023-03-02T11:06:22;5.20;99.90
16966;DHT22;8599;47.852;12.070;2023-03-02T11:09:00;5.50;99.90
16966;DHT22;8599;47.852;12.070;2023-03-02T11:11:27;5.60;99.90
16966;DHT22;8599;47.852;12.070;2023-03-02T11:13:54;5.60;99.90
16966;DHT22;8599;47.852;12.070;2023-03-02T11:16:24;5.50;99.90
16966;DHT22;8599;47.852;12.070;2023-03-02T11:18:56;5.40;99.90
16966;DHT22;8599;47.852;12.070;2023-03-02T11:21:30;5.50;99.90
16966;DHT22;8599;47.852;12.070;2023-03-02T11:24:06;5.60;99.90
16966;DHT22;8599;47.852;12.070;2023-03-02T11:26:37;5.70;99.90
16966;DHT22;8599;47.852;12.070;2023-03-02T11:29:12;5.70;99.90
16966;DHT22;8599;47.852;12.070;2023-03-02T11:31:44;5.80;99.90
16966;DHT22;8599;47.852;12.070;2023-03-02T11:34:31;5.80;99.90
16966;DHT22;8599;47.852;12.070;2023-03-02T11:37:17;5.80;99.90
16966;DHT22;8599;47.852;12.070;2023-03-02T11:40:03;5.90;99.90
16966;DHT22;8599;47.852;12.070;2023-03-02T11:42:37;6.00;99.90
16966;DHT22;8599;47.852;12.070;2023-03-02T11:45:15;6.10;99.90
16966;DHT22;8599;47.852;12.070;2023-03-02T11:47:46;6.30;99.90
16966;DHT22;8599;47.852;12.070;2023-03-02T11:50:15;6.50;99.90
16966;DHT22;8599;47.852;12.070;2023-03-02T11:52:47;6.50;99.90
16966;DHT22;8599;47.852;12.070;2023-03-02T11:55:17;6.50;99.90
16966;DHT22;8599;47.852;12.070;2023-03-02T11:57:46;6.70;99.90
16966;DHT22;8599;47.852;12.070;2023-03-02T12:00:23;6.70;99.90
16966;DHT22;8599;47.852;12.070;2023-03-02T12:03:01;6.80;99.90
16966;DHT22;8599;47.852;12.070;2023-03-02T12:05:30;6.90;99.90
16966;DHT22;8599;47.852;12.070;2023-03-02T12:08:02;7.00;99.90
16966;DHT22;8599;47.852;12.070;2023-03-02T12:10:33;7.10;99.90
16966;DHT22;8599;47.852;12.070;2023-03-02T12:13:13;7.10;99.90
16966;DHT22;8599;47.852;12.070;2023-03-02T12:15:42;7.10;99.90
16966;DHT22;8599;47.852;12.070;2023-03-02T12:18:30;7.30;99.90
16966;DHT22;8599;47.852;12.070;2023-03-02T12:20:58;7.50;99.90
16966;DHT22;8599;47.852;12.070;2023-03-02T12:23:27;7.60;99.90
16966;DHT22;8599;47.852;12.070;2023-03-02T12:26:05;7.70;99.90
16966;DHT22;8599;47.852;12.070;2023-03-02T12:28:34;7.80;99.90
16966;DHT22;8599;47.852;12.070;2023-03-02T12:31:05;8.00;99.90
16966;DHT22;8599;47.852;12.070;2023-03-02T12:33:39;8.20;99.90
16966;DHT22;8599;47.852;12.070;2023-03-02T12:36:12;8.20;99.90
16966;DHT22;8599;47.852;12.070;2023-03-02T12:38:43;8.30;99.90
16966;DHT22;8599;47.852;12.070;2023-03-02T12:41:30;8.40;99.90
16966;DHT22;8599;47.852;12.070;2023-03-02T12:44:27;8.40;99.90
16966;DHT22;8599;47.852;12.070;2023-03-02T12:46:58;8.60;99.90
16966;DHT22;8599;47.852;12.070;2023-03-02T12:49:42;8.70;99.90
16966;DHT22;8599;47.852;12.070;2023-03-02T12:52:25;8.70;99.90
16966;DHT22;8599;47.852;12.070;2023-03-02T12:55:03;8.60;99.90
16966;DHT22;8599;47.852;12.070;2023-03-02T12:57:31;8.70;99.90
16966;DHT22;8599;47.852;12.070;2023-03-02T12:59:59;9.00;99.90
16966;DHT22;8599;47.852;12.070;2023-03-02T13:02:28;9.10;99.90
16966;DHT22;8599;47.852;12.070;2023-03-02T13:04:57;9.00;99.90
16966;DHT22;8599;47.852;12.070;2023-03-02T13:07:25;9.20;99.90
16966;DHT22;8599;47.852;12.070;2023-03-02T13:09:54;9.30;99.90
16966;DHT22;8599;47.852;12.070;2023-03-02T13:12:25;9.30;99.90
16966;DHT22;8599;47.852;12.070;2023-03-02T13:14:54;9.60;99.90
16966;DHT22;8599;47.852;12.070;2023-03-02T13:17:24;9.90;99.90
16966;DHT22;8599;47.852;12.070;2023-03-02T13:19:52;10.00;99.90
16966;DHT22;8599;47.852;12.070;2023-03-02T13:22:19;10.00;99.90
16966;DHT22;8599;47.852;12.070;2023-03-02T13:24:53;9.60;99.90
16966;DHT22;8599;47.852;12.070;2023-03-02T13:27:23;9.30;99.90
16966;DHT22;8599;47.852;12.070;2023-03-02T13:29:50;9.10;99.90
16966;DHT22;8599;47.852;12.070;2023-03-02T13:32:20;9.00;99.90
16966;DHT22;8599;47.852;12.070;2023-03-02T13:34:49;8.90;99.90
16966;DHT22;8599;47.852;12.070;2023-03-02T13:37:20;8.90;99.90
16966;DHT22;8599;47.852;12.070;2023-03-02T13:39:54;8.90;99.90
16966;DHT22;8599;47.852;12.070;2023-03-02T13:42:28;9.00;99.90
16966;DHT22;8599;47.852;12.070;2023-03-02T13:45:10;9.50;99.90
16966;DHT22;8599;47.852;12.070;2023-03-02T13:47:39;10.10;99.90
16966;DHT22;8599;47.852;12.070;2023-03-02T13:50:15;10.40;99.90
16966;DHT22;8599;47.852;12.070;2023-03-02T13:52:42;10.90;99.90
16966;DHT22;8599;47.852;12.070;2023-03-02T13:55:12;11.10;99.90
16966;DHT22;8599;47.852;12.070;2023-03-02T13:57:41;11.20;99.90
16966;DHT22;8599;47.852;12.070;2023-03-02T14:00:12;11.40;99.90
16966;DHT22;8599;47.852;12.070;2023-03-02T14:02:40;11.70;99.90
16966;DHT22;8599;47.852;12.070;2023-03-02T14:05:14;11.90;99.90
16966;DHT22;8599;47.852;12.070;2023-03-02T14:07:41;12.20;99.90
16966;DHT22;8599;47.852;12.070;2023-03-02T14:10:09;12.20;99.90
16966;DHT22;8599;47.852;12.070;2023-03-02T14:12:37;12.10;99.90
16966;DHT22;8599;47.852;12.070;2023-03-02T14:15:12;12.30;99.90
16966;DHT22;8599;47.852;12.070;2023-03-02T14:17:39;12.10;99.90
16966;DHT22;8599;47.852;12.070;2023-03-02T14:20:11;12.20;99.90
16966;DHT22;8599;47.852;12.070;2023-03-02T14:22:38;12.20;99.90
16966;DHT22;8599;47.852;12.070;2023-03-02T14:25:06;12.20;99.90
16966;DHT22;8599;47.852;12.070;2023-03-02T14:27:33;12.40;99.90
16966;DHT22;8599;47.852;12.070;2023-03-02T14:30:00;12.60;99.90
16966;DHT22;8599;47.852;12.070;2023-03-02T14:32:28;12.70;99.90
16966;DHT22;8599;47.852;12.070;2023-03-02T14:34:55;12.90;99.90
16966;DHT22;8599;47.852;12.070;2023-03-02T14:37:26;13.10;99.90
16966;DHT22;8599;47.852;12.070;2023-03-02T14:39:54;12.90;99.90
16966;DHT22;8599;47.852;12.070;2023-03-02T14:42:22;12.80;99.90
16966;DHT22;8599;47.852;12.070;2023-03-02T14:44:50;12.50;99.90
16966;DHT22;8599;47.852;12.070;2023-03-02T14:47:17;12.20;99.90
16966;DHT22;8599;47.852;12.070;2023-03-02T14:49:47;12.20;99.90
16966;DHT22;8599;47.852;12.070;2023-03-02T14:52:18;12.30;99.90
16966;DHT22;8599;47.852;12.070;2023-03-02T14:54:53;12.20;99.90
16966;DHT22;8599;47.852;12.070;2023-03-02T14:57:23;12.00;99.90
16966;DHT22;8599;47.852;12.070;2023-03-02T14:59:51;11.90;99.90
16966;DHT22;8599;47.852;12.070;2023-03-02T15:02:19;11.70;99.90
16966;DHT22;8599;47.852;12.070;2023-03-02T15:04:48;11.80;99.90
16966;DHT22;8599;47.852;12.070;2023-03-02T15:07:17;11.70;99.90
16966;DHT22;8599;47.852;12.070;2023-03-02T15:09:45;11.60;99.90
16966;DHT22;8599;47.852;12.070;2023-03-02T15:12:12;11.70;99.90
16966;DHT22;8599;47.852;12.070;2023-03-02T15:14:39;11.70;99.90
16966;DHT22;8599;47.852;12.070;2023-03-02T15:17:06;11.80;99.90
16966;DHT22;8599;47.852;12.070;2023-03-02T15:19:33;11.70;99.90
16966;DHT22;8599;47.852;12.070;2023-03-02T15:22:01;11.60;99.90
16966;DHT22;8599;47.852;12.070;2023-03-02T15:24:28;11.40;99.90
16966;DHT22;8599;47.852;12.070;2023-03-02T15:26:55;11.20;99.90
16966;DHT22;8599;47.852;12.070;2023-03-02T15:29:22;11.40;99.90
16966;DHT22;8599;47.852;12.070;2023-03-02T15:31:49;11.70;99.90
16966;DHT22;8599;47.852;12.070;2023-03-02T15:34:15;11.70;99.90
16966;DHT22;8599;47.852;12.070;2023-03-02T15:36:42;11.40;99.90
16966;DHT22;8599;47.852;12.070;2023-03-02T15:39:13;11.20;99.90
16966;DHT22;8599;47.852;12.070;2023-03-02T15:41:41;11.10;99.90
16966;DHT22;8599;47.852;12.070;2023-03-02T15:44:15;10.80;99.90
16966;DHT22;8599;47.852;12.070;2023-03-02T15:46:46;10.60;99.90
16966;DHT22;8599;47.852;12.070;2023-03-02T15:49:13;10.40;99.90
16966;DHT22;8599;47.852;12.070;2023-03-02T15:51:39;10.20;99.90
16966;DHT22;8599;47.852;12.070;2023-03-02T15:54:06;10.10;99.90
16966;DHT22;8599;47.852;12.070;2023-03-02T15:56:36;9.90;99.90
16966;DHT22;8599;47.852;12.070;2023-03-02T15:59:03;9.80;99.90